createdAt,value
2022-10-25T00:00:10.414Z,53.72
2022-10-25T00:02:41.000Z,53.42
2022-10-25T00:05:13.523Z,53.52
2022-10-25T00:07:41.616Z,53.41
2022-10-25T00:10:10.262Z,53.23
2022-10-25T00:12:42.818Z,53.19
2022-10-25T00:15:14.027Z,53.67
2022-10-25T00:17:42.351Z,53.70
2022-10-25T00:20:12.917Z,53.62
2022-10-25T00:22:41.207Z,53.21
2022-10-25T00:25:10.610Z,53.35
2022-10-25T00:27:38.696Z,53.23
2022-10-25T00:30:08.673Z,53.41
2022-10-25T00:32:37.161Z,53.52
2022-10-25T00:35:05.440Z,53.55
2022-10-25T00:37:34.640Z,53.74
2022-10-25T00:40:02.465Z,53.11
2022-10-25T00:42:30.302Z,53.62
2022-10-25T00:45:00.487Z,53.75
2022-10-25T00:47:41.322Z,53.96
2022-10-25T00:50:19.265Z,53.37
2022-10-25T00:52:52.541Z,53.64
2022-10-25T00:55:22.963Z,53.63
2022-10-25T00:57:55.432Z,53.47
2022-10-25T01:00:23.488Z,53.39
2022-10-25T01:02:51.836Z,53.09
2022-10-25T01:05:21.010Z,53.27
2022-10-25T01:07:50.289Z,53.02
2022-10-25T01:10:18.480Z,53.34
2022-10-25T01:12:48.561Z,53.10
2022-10-25T01:15:19.346Z,53.38
2022-10-25T01:17:54.389Z,53.60
2022-10-25T01:20:58.859Z,53.95
2022-10-25T01:23:45.851Z,53.35
2022-10-25T01:26:48.419Z,53.42
2022-10-25T01:29:48.083Z,54.10
2022-10-25T01:32:23.038Z,53.36
2022-10-25T01:34:57.357Z,53.82
2022-10-25T01:37:31.998Z,53.42
2022-10-25T01:40:07.805Z,53.74
2022-10-25T01:42:41.947Z,53.45
2022-10-25T01:45:14.298Z,53.48
2022-10-25T01:47:48.779Z,53.90
2022-10-25T01:50:22.460Z,53.76
2022-10-25T01:52:50.352Z,53.26
2022-10-25T01:55:20.709Z,53.77
2022-10-25T01:58:04.733Z,53.93
2022-10-25T02:00:40.053Z,53.75
2022-10-25T02:03:18.168Z,53.74
2022-10-25T02:06:00.793Z,53.97
2022-10-25T02:08:36.312Z,53.73
2022-10-25T02:11:10.277Z,53.69
2022-10-25T02:13:48.935Z,53.85
2022-10-25T02:16:20.625Z,53.18
2022-10-25T02:18:54.801Z,53.84
2022-10-25T02:21:25.864Z,53.50
2022-10-25T02:23:55.675Z,53.14
2022-10-25T02:26:24.293Z,53.08
2022-10-25T02:28:52.789Z,53.57
2022-10-25T02:31:23.193Z,53.31
2022-10-25T02:33:52.774Z,53.45
2022-10-25T02:36:22.396Z,53.57
2022-10-25T02:38:52.461Z,53.58
2022-10-25T02:45:19.901Z,53.20
2022-10-25T02:47:47.929Z,53.25
2022-10-25T02:50:17.443Z,53.32
2022-10-25T02:52:45.535Z,53.33
2022-10-25T02:55:13.462Z,53.73
2022-10-25T02:57:41.332Z,53.79
2022-10-25T03:02:44.074Z,53.94
2022-10-25T03:05:12.016Z,53.56
2022-10-25T03:07:41.204Z,53.86
2022-10-25T03:10:09.805Z,53.54
2022-10-25T03:12:37.666Z,53.98
2022-10-25T03:15:06.240Z,54.00
2022-10-25T03:17:34.170Z,53.96
2022-10-25T03:20:01.910Z,54.03
2022-10-25T03:22:29.689Z,53.87
2022-10-25T03:24:58.879Z,53.85
2022-10-25T03:27:26.767Z,53.45
2022-10-25T03:29:54.894Z,53.97
2022-10-25T03:32:22.795Z,53.90
2022-10-25T03:34:50.573Z,53.71
2022-10-25T03:37:18.359Z,54.04
2022-10-25T03:39:46.111Z,53.49
2022-10-25T03:42:15.559Z,53.40
2022-10-25T03:44:43.348Z,53.96
2022-10-25T03:47:11.237Z,53.51
2022-10-25T03:49:39.140Z,53.54
2022-10-25T03:52:07.318Z,53.73
2022-10-25T03:54:35.936Z,53.76
2022-10-25T03:57:04.356Z,53.53
2022-10-25T03:59:33.517Z,53.33
2022-10-25T04:02:02.086Z,53.93
2022-10-25T04:04:30.006Z,53.37
2022-10-25T04:06:57.927Z,53.73
2022-10-25T04:09:25.804Z,53.74
2022-10-25T04:11:53.721Z,53.67
2022-10-25T04:14:21.772Z,53.41
2022-10-25T04:16:51.051Z,53.72
2022-10-25T04:19:19.146Z,53.88
2022-10-25T04:21:47.648Z,53.60
2022-10-25T04:24:15.468Z,53.98
2022-10-25T04:26:43.321Z,53.60
2022-10-25T04:29:12.102Z,54.05
2022-10-25T04:31:39.911Z,53.99
2022-10-25T04:34:09.084Z,54.08
2022-10-25T04:36:36.973Z,53.99
2022-10-25T04:39:04.889Z,53.66
2022-10-25T04:41:33.073Z,53.99
2022-10-25T04:44:00.854Z,54.17
2022-10-25T04:46:28.669Z,54.09
2022-10-25T04:48:56.468Z,54.03
2022-10-25T04:51:25.696Z,53.81
2022-10-25T04:53:54.420Z,53.96
2022-10-25T04:56:22.476Z,53.80
2022-10-25T04:58:50.286Z,54.05
2022-10-25T05:01:19.537Z,53.74
2022-10-25T05:03:47.565Z,54.20
2022-10-25T05:06:18.152Z,53.66
2022-10-25T05:08:49.494Z,54.03
2022-10-25T05:11:19.033Z,54.13
2022-10-25T05:13:47.865Z,54.16
2022-10-25T05:16:20.271Z,54.00
2022-10-25T05:18:48.620Z,53.69
2022-10-25T05:21:17.408Z,54.03
2022-10-25T05:23:45.381Z,54.03
2022-10-25T05:26:17.019Z,54.11
2022-10-25T05:28:47.056Z,53.63
2022-10-25T05:31:16.622Z,53.96
2022-10-25T05:33:45.993Z,54.08
2022-10-25T05:36:15.079Z,53.87
2022-10-25T05:38:43.668Z,53.60
2022-10-25T05:41:13.121Z,54.14
2022-10-25T05:43:42.961Z,54.03
2022-10-25T05:46:13.413Z,53.89
2022-10-25T05:48:45.796Z,54.02
2022-10-25T05:51:33.343Z,53.56
2022-10-25T05:54:03.677Z,53.62
2022-10-25T05:56:33.088Z,54.00
2022-10-25T05:59:08.853Z,54.16
2022-10-25T06:01:37.716Z,54.08
2022-10-25T06:04:06.343Z,53.96
2022-10-25T06:06:34.691Z,53.91
2022-10-25T06:09:03.014Z,54.06
2022-10-25T06:11:31.527Z,53.46
2022-10-25T06:13:59.355Z,53.63
2022-10-25T06:16:28.902Z,53.72
2022-10-25T06:18:56.976Z,53.88
2022-10-25T06:21:27.328Z,53.46
2022-10-25T06:23:55.594Z,54.22
2022-10-25T06:26:25.413Z,54.14
2022-10-25T06:28:55.021Z,53.83
2022-10-25T06:31:23.430Z,54.17
2022-10-25T06:33:53.088Z,53.70
2022-10-25T06:36:22.629Z,53.81
2022-10-25T06:38:51.242Z,53.92
2022-10-25T06:41:20.857Z,54.03
2022-10-25T06:43:49.369Z,54.23
2022-10-25T06:46:21.834Z,54.68
2022-10-25T06:48:50.038Z,54.12
2022-10-25T06:51:19.948Z,54.16
2022-10-25T06:53:47.834Z,54.68
2022-10-25T06:56:15.781Z,53.97
2022-10-25T06:58:43.893Z,54.39
2022-10-25T07:01:13.255Z,54.18
2022-10-25T07:03:41.558Z,54.26
2022-10-25T07:06:11.056Z,54.51
2022-10-25T07:08:41.828Z,54.70
2022-10-25T07:11:15.414Z,54.75
2022-10-25T07:13:43.493Z,54.88
2022-10-25T07:16:14.301Z,54.58
2022-10-25T07:18:42.818Z,54.73
2022-10-25T07:21:13.116Z,54.76
2022-10-25T07:23:43.095Z,54.35
2022-10-25T07:26:12.739Z,54.22
2022-10-25T07:28:41.426Z,54.63
2022-10-25T07:31:09.266Z,54.64
2022-10-25T07:33:37.127Z,54.56
2022-10-25T07:36:10.661Z,54.08
2022-10-25T07:38:39.602Z,54.51
2022-10-25T07:41:09.493Z,54.47
2022-10-25T07:43:39.101Z,54.55
2022-10-25T07:46:07.898Z,53.87
2022-10-25T07:48:36.673Z,54.10
2022-10-25T07:51:05.871Z,54.34
2022-10-25T07:53:33.844Z,53.74
2022-10-25T07:56:01.704Z,54.32
2022-10-25T07:58:30.936Z,54.25
2022-10-25T08:01:03.389Z,53.78
2022-10-25T08:03:32.188Z,54.28
2022-10-25T08:06:00.676Z,54.39
2022-10-25T08:08:29.037Z,54.40
2022-10-25T08:10:57.712Z,54.33
2022-10-25T08:13:25.523Z,54.12
2022-10-25T08:15:56.446Z,54.20
2022-10-25T08:18:25.243Z,54.48
2022-10-25T08:21:08.285Z,54.69
2022-10-25T08:23:36.257Z,54.69
2022-10-25T08:26:04.515Z,54.74
2022-10-25T08:28:32.680Z,54.65
2022-10-25T08:31:02.113Z,54.83
2022-10-25T08:33:30.109Z,54.34
2022-10-25T08:36:00.897Z,54.39
2022-10-25T08:38:28.657Z,54.34
2022-10-25T08:41:04.202Z,54.40
2022-10-25T08:43:53.278Z,54.20
2022-10-25T08:46:27.234Z,54.87
2022-10-25T08:49:11.582Z,54.58
2022-10-25T08:51:42.785Z,54.82
2022-10-25T08:54:22.596Z,54.81
2022-10-25T08:57:10.781Z,54.43
2022-10-25T08:59:44.093Z,54.45
2022-10-25T09:02:19.508Z,54.59
2022-10-25T09:04:47.503Z,55.06
2022-10-25T09:07:30.096Z,54.40
2022-10-25T09:10:10.324Z,53.90
2022-10-25T09:12:43.960Z,54.40
2022-10-25T09:15:21.051Z,53.66
2022-10-25T09:17:52.019Z,54.18
2022-10-25T09:20:22.036Z,54.18
2022-10-25T09:22:55.385Z,53.93
2022-10-25T09:25:31.087Z,53.08
2022-10-25T09:28:01.128Z,53.72
2022-10-25T09:30:31.255Z,53.18
2022-10-25T09:33:04.311Z,53.36
2022-10-25T09:35:42.089Z,52.88
2022-10-25T09:38:16.997Z,52.91
2022-10-25T09:40:48.214Z,52.93
2022-10-25T09:43:19.818Z,52.71
2022-10-25T09:45:51.390Z,52.58
2022-10-25T09:48:28.565Z,52.06
2022-10-25T09:51:04.050Z,52.16
2022-10-25T09:53:34.359Z,52.19
2022-10-25T09:56:05.862Z,51.57
2022-10-25T09:58:36.394Z,51.94
2022-10-25T10:01:07.592Z,51.44
2022-10-25T10:03:37.913Z,51.00
2022-10-25T10:06:17.946Z,50.36
2022-10-25T10:08:51.876Z,51.07
2022-10-25T10:11:21.543Z,50.97
2022-10-25T10:13:54.847Z,50.38
2022-10-25T10:16:26.959Z,50.95
2022-10-25T10:19:14.763Z,50.50
2022-10-25T10:21:44.717Z,50.78
2022-10-25T10:24:18.594Z,50.65
2022-10-25T10:26:51.615Z,50.83
2022-10-25T10:29:23.105Z,50.63
2022-10-25T10:31:53.203Z,50.73
2022-10-25T10:34:28.379Z,50.63
2022-10-25T10:37:04.238Z,50.50
2022-10-25T10:39:32.557Z,51.16
2022-10-25T10:42:03.366Z,50.93
2022-10-25T10:44:34.686Z,51.16
2022-10-25T10:47:10.867Z,51.00
2022-10-25T10:49:42.695Z,50.87
2022-10-25T10:52:28.499Z,50.20
2022-10-25T10:54:56.911Z,51.24
2022-10-25T10:57:32.308Z,50.47
2022-10-25T11:00:01.382Z,50.40
2022-10-25T11:02:41.491Z,49.46
2022-10-25T11:05:22.921Z,49.75
2022-10-25T11:07:56.997Z,49.98
2022-10-25T11:10:27.593Z,49.99
2022-10-25T11:13:20.219Z,49.61
2022-10-25T11:16:18.630Z,49.40
2022-10-25T11:18:54.735Z,50.04
2022-10-25T11:21:40.297Z,49.79
2022-10-25T11:24:15.970Z,50.08
2022-10-25T11:26:54.263Z,49.14
2022-10-25T11:29:39.708Z,49.05
2022-10-25T11:32:43.158Z,49.30
2022-10-25T11:35:26.269Z,49.39
2022-10-25T11:38:02.798Z,49.94
2022-10-25T11:40:32.096Z,50.50
2022-10-25T11:43:14.256Z,49.32
2022-10-25T11:45:44.155Z,50.32
2022-10-25T11:48:47.372Z,49.14
2022-10-25T11:51:18.888Z,50.31
2022-10-25T11:54:05.375Z,49.27
2022-10-25T11:56:40.091Z,48.74
2022-10-25T11:59:17.495Z,48.89
2022-10-25T12:01:58.708Z,48.01
2022-10-25T12:04:45.934Z,48.33
2022-10-25T12:07:20.043Z,49.26
2022-10-25T12:10:03.025Z,48.56
2022-10-25T12:12:42.843Z,48.39
2022-10-25T12:15:18.244Z,48.60
2022-10-25T12:17:46.188Z,49.40
2022-10-25T12:20:21.530Z,48.34
2022-10-25T12:22:52.921Z,48.88
2022-10-25T12:25:26.276Z,48.57
2022-10-25T12:28:01.266Z,48.11
2022-10-25T12:30:31.526Z,48.15
2022-10-25T12:33:06.190Z,47.59
2022-10-25T12:35:40.968Z,48.26
2022-10-25T12:38:16.529Z,47.65
2022-10-25T12:40:50.488Z,47.65
2022-10-25T12:43:27.823Z,47.74
2022-10-25T12:46:05.334Z,47.68
2022-10-25T12:48:54.831Z,47.09
2022-10-25T12:51:38.096Z,47.27
2022-10-25T12:54:23.925Z,47.81
2022-10-25T12:57:06.669Z,47.37
2022-10-25T12:59:50.675Z,47.19
2022-10-25T13:02:55.944Z,46.90
2022-10-25T13:05:59.092Z,47.04
2022-10-25T13:08:29.629Z,47.79
2022-10-25T13:11:02.418Z,47.59
2022-10-25T13:13:33.798Z,47.28
2022-10-25T13:16:04.477Z,47.32
2022-10-25T13:18:45.237Z,46.57
2022-10-25T13:21:14.454Z,47.20
2022-10-25T13:24:01.069Z,46.54
2022-10-25T13:26:32.173Z,47.41
2022-10-25T13:29:03.650Z,46.53
2022-10-25T13:31:46.847Z,47.21
2022-10-25T13:34:36.825Z,46.15
2022-10-25T13:37:43.741Z,46.48
2022-10-25T13:40:24.686Z,46.42
2022-10-25T13:43:02.665Z,46.22
2022-10-25T13:45:46.298Z,46.34
2022-10-25T13:48:26.718Z,45.87
2022-10-25T13:50:56.741Z,46.34
2022-10-25T13:53:27.063Z,46.38
2022-10-25T13:56:00.185Z,45.62
2022-10-25T13:58:49.194Z,45.53
2022-10-25T14:01:54.772Z,45.44
2022-10-25T14:04:35.466Z,45.61
2022-10-25T14:07:40.787Z,45.45
2022-10-25T14:10:16.493Z,45.95
2022-10-25T14:12:48.665Z,45.82
2022-10-25T14:15:25.596Z,45.50
2022-10-25T14:17:53.813Z,45.79
2022-10-25T14:20:28.632Z,44.65
2022-10-25T14:23:00.693Z,45.39
2022-10-25T14:25:34.843Z,44.52
2022-10-25T14:28:15.147Z,44.04
2022-10-25T14:30:44.850Z,44.64
2022-10-25T14:33:31.233Z,43.71
2022-10-25T14:36:09.488Z,44.23
2022-10-25T14:38:49.806Z,44.84
2022-10-25T14:41:22.295Z,44.47
2022-10-25T14:43:50.468Z,45.13
2022-10-25T14:46:19.940Z,44.78
2022-10-25T14:48:49.652Z,44.78
2022-10-25T14:51:22.078Z,44.43
2022-10-25T14:53:56.838Z,43.77
2022-10-25T14:56:30.110Z,43.79
2022-10-25T14:58:59.006Z,44.24
2022-10-25T15:01:27.511Z,44.62
2022-10-25T15:03:59.145Z,44.42
2022-10-25T15:06:30.943Z,44.10
2022-10-25T15:09:37.083Z,44.17
2022-10-25T15:12:04.635Z,43.52
2022-10-25T15:14:32.793Z,44.62
2022-10-25T15:17:05.097Z,43.66
2022-10-25T15:19:34.048Z,44.44
2022-10-25T15:22:16.290Z,43.71
2022-10-25T15:24:45.920Z,44.23
2022-10-25T15:27:27.876Z,44.22
2022-10-25T15:29:55.963Z,44.41
2022-10-25T15:32:27.017Z,44.40
2022-10-25T15:34:56.731Z,44.41
2022-10-25T15:37:27.195Z,44.05
2022-10-25T15:39:56.399Z,44.18
2022-10-25T15:42:26.859Z,44.34
2022-10-25T15:44:55.415Z,44.72
2022-10-25T15:47:33.064Z,44.26
2022-10-25T15:50:03.965Z,44.61
2022-10-25T15:52:33.313Z,44.34
2022-10-25T15:55:01.235Z,44.27
2022-10-25T15:57:29.165Z,44.69
2022-10-25T15:59:57.229Z,44.82
2022-10-25T16:02:28.537Z,44.68
2022-10-25T16:04:56.580Z,44.84
2022-10-25T16:07:24.450Z,44.55
2022-10-25T16:09:53.783Z,44.25
2022-10-25T16:12:25.795Z,44.58
2022-10-25T16:14:54.205Z,45.01
2022-10-25T16:17:21.957Z,45.01
2022-10-25T16:19:49.841Z,44.95
2022-10-25T16:22:17.682Z,44.97
2022-10-25T16:24:45.494Z,45.33
2022-10-25T16:27:14.808Z,45.34
2022-10-25T16:29:42.714Z,45.40
2022-10-25T16:32:10.636Z,45.36
2022-10-25T16:34:42.363Z,45.38
2022-10-25T16:37:11.971Z,45.30
2022-10-25T16:39:40.202Z,45.70
2022-10-25T16:42:31.472Z,45.41
2022-10-25T16:45:00.181Z,45.79
2022-10-25T16:47:28.365Z,45.91
2022-10-25T16:49:56.263Z,45.83
2022-10-25T16:52:24.188Z,45.98
2022-10-25T16:54:52.108Z,45.76
2022-10-25T16:57:19.930Z,46.32
2022-10-25T16:59:50.528Z,45.90
2022-10-25T17:02:20.467Z,46.30
2022-10-25T17:04:49.483Z,46.21
2022-10-25T17:07:17.379Z,46.21
2022-10-25T17:09:45.379Z,46.31
2022-10-25T17:12:13.698Z,46.35
2022-10-25T17:14:41.908Z,46.61
2022-10-25T17:17:11.129Z,46.64
2022-10-25T17:19:39.038Z,46.12
2022-10-25T17:22:07.455Z,46.20
2022-10-25T17:24:37.521Z,46.35
2022-10-25T17:27:06.358Z,46.50
2022-10-25T17:29:34.377Z,46.78
2022-10-25T17:32:02.298Z,46.57
2022-10-25T17:34:32.129Z,46.67
2022-10-25T17:37:02.078Z,46.90
2022-10-25T17:39:30.218Z,47.06
2022-10-25T17:41:58.156Z,46.92
2022-10-25T17:44:26.066Z,47.03
2022-10-25T17:46:54.870Z,46.63
2022-10-25T17:49:24.451Z,46.65
2022-10-25T17:51:53.578Z,46.59
2022-10-25T17:54:21.580Z,46.65
2022-10-25T17:56:49.408Z,47.20
2022-10-25T17:59:17.392Z,46.85
2022-10-25T18:01:45.374Z,47.42
2022-10-25T18:04:13.296Z,47.15
2022-10-25T18:06:41.153Z,46.79
2022-10-25T18:09:11.006Z,46.89
2022-10-25T18:11:39.954Z,46.94
2022-10-25T18:14:07.834Z,47.33
2022-10-25T18:16:35.629Z,46.96
2022-10-25T18:19:07.073Z,47.34
2022-10-25T18:21:35.112Z,47.45
2022-10-25T18:24:04.861Z,47.47
2022-10-25T18:26:35.531Z,47.02
2022-10-25T18:29:03.645Z,47.63
2022-10-25T18:31:31.457Z,47.00
2022-10-25T18:34:03.407Z,47.57
2022-10-25T18:36:32.760Z,47.35
2022-10-25T18:39:00.862Z,47.62
2022-10-25T18:41:31.388Z,47.69
2022-10-25T18:44:02.382Z,47.29
2022-10-25T18:46:31.922Z,47.33
2022-10-25T18:49:00.010Z,47.59
2022-10-25T18:51:29.259Z,47.30
2022-10-25T18:53:57.802Z,47.69
2022-10-25T18:56:26.512Z,47.84
2022-10-25T18:58:56.740Z,47.35
2022-10-25T19:01:28.723Z,47.40
2022-10-25T19:03:57.865Z,47.75
2022-10-25T19:06:26.581Z,47.84
2022-10-25T19:08:55.348Z,47.73
2022-10-25T19:11:23.773Z,47.33
2022-10-25T19:13:54.792Z,47.68
2022-10-25T19:16:23.341Z,47.42
2022-10-25T19:18:52.620Z,47.39
2022-10-25T19:21:20.844Z,47.72
2022-10-25T19:23:48.898Z,47.81
2022-10-25T19:26:19.476Z,47.66
2022-10-25T19:28:48.403Z,47.39
2022-10-25T19:31:18.412Z,47.81
2022-10-25T19:33:47.052Z,47.60
2022-10-25T19:36:17.652Z,47.50
2022-10-25T19:38:48.149Z,47.78
2022-10-25T19:41:19.277Z,47.58
2022-10-25T19:43:48.212Z,47.67
2022-10-25T19:46:16.444Z,48.10
2022-10-25T19:48:44.374Z,48.08
2022-10-25T19:51:14.122Z,48.02
2022-10-25T19:53:43.704Z,48.05
2022-10-25T19:56:13.833Z,48.06
2022-10-25T19:58:42.242Z,48.00
2022-10-25T20:01:12.531Z,47.54
2022-10-25T20:03:41.625Z,48.15
2022-10-25T20:06:11.199Z,47.67
2022-10-25T20:08:41.066Z,47.50
2022-10-25T20:11:13.108Z,47.81
2022-10-25T20:13:41.246Z,48.24
2022-10-25T20:16:09.920Z,47.79
2022-10-25T20:18:40.340Z,48.31
2022-10-25T20:21:11.464Z,48.54
2022-10-25T20:23:40.450Z,48.18
2022-10-25T20:26:14.513Z,48.41
2022-10-25T20:28:42.925Z,48.52
2022-10-25T20:31:11.589Z,48.15
2022-10-25T20:33:40.095Z,48.19
2022-10-25T20:36:09.910Z,48.11
2022-10-25T20:38:38.846Z,48.20
2022-10-25T20:41:08.375Z,48.19
2022-10-25T20:43:38.483Z,48.69
2022-10-25T20:46:08.044Z,48.15
2022-10-25T20:48:36.859Z,48.15
2022-10-25T20:51:07.774Z,47.96
2022-10-25T20:53:36.815Z,48.41
2022-10-25T20:56:05.835Z,48.56
2022-10-25T20:58:35.031Z,48.79
2022-10-25T21:01:04.355Z,48.45
2022-10-25T21:03:33.125Z,48.83
2022-10-25T21:06:04.441Z,48.95
2022-10-25T21:08:33.287Z,49.00
2022-10-25T21:11:02.290Z,48.98
2022-10-25T21:13:32.478Z,48.97
2022-10-25T21:16:05.256Z,48.63
2022-10-25T21:18:34.313Z,49.57
2022-10-25T21:21:03.355Z,49.00
2022-10-25T21:23:32.149Z,48.95
2022-10-25T21:26:00.205Z,48.38
2022-10-25T21:28:28.197Z,49.07
2022-10-25T21:30:55.981Z,48.82
2022-10-25T21:33:23.775Z,48.96
2022-10-25T21:35:52.960Z,48.99
2022-10-25T21:38:20.940Z,48.98
2022-10-25T21:40:48.790Z,48.67
2022-10-25T21:43:16.610Z,48.59
2022-10-25T21:45:44.416Z,49.25
2022-10-25T21:48:12.320Z,49.16
2022-10-25T21:50:40.078Z,49.09
2022-10-25T21:53:09.357Z,48.76
2022-10-25T21:55:37.139Z,49.26
2022-10-25T21:58:04.980Z,49.24
2022-10-25T22:00:32.721Z,48.78
2022-10-25T22:03:00.499Z,48.84
2022-10-25T22:05:28.305Z,49.27
2022-10-25T22:07:56.161Z,49.25
2022-10-25T22:10:25.382Z,49.16
2022-10-25T22:12:54.906Z,48.88
2022-10-25T22:15:22.726Z,49.38
2022-10-25T22:17:50.583Z,49.32
2022-10-25T22:20:18.514Z,49.09
2022-10-25T22:22:46.603Z,49.12
2022-10-25T22:25:14.781Z,49.16
2022-10-25T22:30:18.294Z,48.65
2022-10-25T22:32:46.271Z,48.78
2022-10-25T22:35:14.533Z,49.15
2022-10-25T22:37:42.293Z,48.86
2022-10-25T22:40:10.971Z,48.91
2022-10-25T22:42:38.709Z,49.17
2022-10-25T22:45:09.029Z,49.32
2022-10-25T22:47:36.800Z,49.48
2022-10-25T22:50:04.740Z,49.20
2022-10-25T22:52:32.652Z,49.29
2022-10-25T22:55:00.495Z,48.79
2022-10-25T22:57:30.841Z,48.79
2022-10-25T22:59:58.627Z,49.21
2022-10-25T23:02:27.730Z,49.24
2022-10-25T23:04:55.482Z,49.15
2022-10-25T23:07:23.285Z,49.49
2022-10-25T23:09:51.060Z,49.30
2022-10-25T23:12:18.842Z,49.42
2022-10-25T23:14:46.656Z,49.49
2022-10-25T23:17:14.474Z,49.58
2022-10-25T23:19:43.612Z,49.37
2022-10-25T23:22:11.449Z,49.79
2022-10-25T23:24:39.172Z,49.81
2022-10-25T23:27:06.994Z,49.30
2022-10-25T23:29:34.871Z,49.71
2022-10-25T23:32:02.634Z,49.30
2022-10-25T23:34:32.150Z,49.30
2022-10-25T23:37:01.343Z,49.43
2022-10-25T23:39:29.128Z,49.84
2022-10-25T23:41:57.605Z,49.71
2022-10-25T23:44:25.460Z,50.05
2022-10-25T23:46:53.197Z,49.97
2022-10-25T23:49:20.956Z,49.84
2022-10-25T23:51:48.721Z,50.03
2022-10-25T23:54:17.904Z,49.96
2022-10-25T23:56:45.667Z,49.96
2022-10-25T23:59:13.484Z,49.58
